Terminal Aerodrome Forecast
Issued by NWS

Home | Current Version | Previous Version | Text Only | Print | Product List | Glossary On
Versions: 1 2 3 4 5 6 7 8 9 10 11 12 13 14 15 16 17 18
000
FTUS45 KRIW 210700 AAA
TAFCPR
TAF AMD
KCPR 210757Z 2108/2206 07009KT P6SM BKN024
     FM211100 10006KT P6SM VCFG SCT008 BKN022
     FM211600 08010G16KT P6SM SCT040 BKN060
     FM220400 09007KT P6SM SCT060 BKN110=

USA.gov is the U.S. government's official web portal to all federal, state and local government web resources and services.